Time;durP1;ratioP1;P1;durP2;ratioP2;P2;SDS_P1;SDS_P2;PMS_P1;PMS_P2;Temp;Humidity;BMP_temperature;BMP_pressure;BME280_temperature;BME280_humidity;BME280_pressure;Samples;Min_cycle;Max_cycle;Signal;HPM_P1;HPM_P2
2021/12/30 00:00:48;;;;;;;17.42;12.05;;;;;;;8.81;100.00;100111.75;5036808;28;20044;-86
2021/12/30 00:03:15;;;;;;;15.18;11.68;;;;;;;8.84;100.00;100110.00;5037273;28;20050;-86
2021/12/30 00:05:42;;;;;;;18.13;11.30;;;;;;;8.91;100.00;100102.94;5014745;28;20055;-85
2021/12/30 00:08:09;;;;;;;19.25;12.85;;;;;;;8.96;100.00;100105.50;5008831;28;21052;-86
2021/12/30 00:10:37;;;;;;;20.58;13.85;;;;;;;8.97;100.00;100121.16;5028593;28;20045;-86
2021/12/30 00:13:04;;;;;;;18.52;13.23;;;;;;;9.02;100.00;100126.31;5048543;28;20098;-87
2021/12/30 00:15:31;;;;;;;22.02;13.18;;;;;;;9.02;100.00;100126.31;5022992;28;20048;-86
2021/12/30 00:17:57;;;;;;;24.63;12.13;;;;;;;9.04;100.00;100125.41;5027159;28;20811;-86
2021/12/30 00:20:24;;;;;;;21.00;13.25;;;;;;;9.07;100.00;100133.25;5043334;28;20686;-86
2021/12/30 00:22:51;;;;;;;24.02;13.52;;;;;;;9.08;100.00;100129.72;5042596;28;20045;-86
2021/12/30 00:25:18;;;;;;;33.80;14.98;;;;;;;9.11;100.00;100141.88;5036366;28;20087;-87
2021/12/30 00:27:44;;;;;;;21.33;12.75;;;;;;;9.10;100.00;100148.00;5022664;28;20239;-87
2021/12/30 00:30:13;;;;;;;24.30;14.50;;;;;;;9.13;100.00;100154.94;5046804;28;20044;-87
2021/12/30 00:32:40;;;;;;;23.77;12.73;;;;;;;9.16;100.00;100155.75;5028923;28;20424;-85
2021/12/30 00:35:09;;;;;;;31.05;14.82;;;;;;;9.19;100.00;100166.19;5028134;28;20151;-86
2021/12/30 00:37:36;;;;;;;19.88;12.85;;;;;;;9.21;100.00;100168.78;5028178;28;20052;-86
2021/12/30 00:40:03;;;;;;;22.77;12.43;;;;;;;9.18;100.00;100167.06;5027826;28;20396;-86
2021/12/30 00:42:29;;;;;;;24.40;13.60;;;;;;;9.25;100.00;100167.84;5021890;28;20637;-85
2021/12/30 00:44:56;;;;;;;28.50;13.63;;;;;;;9.24;100.00;100166.13;5026754;28;20056;-85
2021/12/30 00:47:22;;;;;;;21.10;12.30;;;;;;;9.22;100.00;100165.28;5030626;28;20044;-85
2021/12/30 00:49:51;;;;;;;24.00;12.65;;;;;;;9.23;100.00;100174.81;5036992;28;20087;-85
2021/12/30 00:52:18;;;;;;;24.42;12.68;;;;;;;9.21;100.00;100184.44;5028564;28;20048;-86
2021/12/30 00:54:44;;;;;;;25.17;12.15;;;;;;;9.16;100.00;100189.69;5048052;28;20053;-85
2021/12/30 00:57:11;;;;;;;17.98;12.23;;;;;;;9.15;100.00;100193.22;5024719;28;20373;-86
2021/12/30 00:59:37;;;;;;;24.70;13.10;;;;;;;9.16;100.00;100197.53;5033123;28;20049;-85
2021/12/30 01:02:04;;;;;;;22.45;12.50;;;;;;;9.16;100.00;100199.28;5046273;28;20087;-86
2021/12/30 01:04:31;;;;;;;18.08;12.30;;;;;;;9.15;100.00;100203.66;5039617;28;20040;-86
2021/12/30 01:06:58;;;;;;;19.63;12.05;;;;;;;9.16;100.00;100205.38;5048091;28;20049;-85
2021/12/30 01:09:24;;;;;;;23.90;13.38;;;;;;;9.19;100.00;100223.63;5010654;28;20055;-85
2021/12/30 01:11:51;;;;;;;21.60;12.75;;;;;;;9.22;100.00;100217.50;5016154;28;20139;-85
2021/12/30 01:14:21;;;;;;;28.00;14.45;;;;;;;9.22;100.00;100209.69;5034916;28;20131;-86
2021/12/30 01:16:52;;;;;;;19.98;13.00;;;;;;;9.23;100.00;100227.94;5030740;28;20041;-85
2021/12/30 01:19:42;;;;;;;28.98;13.65;;;;;;;9.21;100.00;100245.34;5047354;28;20049;-85
2021/12/30 01:22:16;;;;;;;24.40;14.15;;;;;;;9.23;100.00;100259.28;5011124;28;20248;-85
2021/12/30 01:24:44;;;;;;;19.65;13.23;;;;;;;9.24;100.00;100262.75;5050360;28;20076;-86
2021/12/30 01:27:11;;;;;;;23.45;13.00;;;;;;;9.26;100.00;100263.59;5026353;28;20041;-85
2021/12/30 01:29:38;;;;;;;23.60;12.93;;;;;;;9.23;100.00;100261.91;5017308;28;20152;-85
2021/12/30 01:32:05;;;;;;;31.25;12.63;;;;;;;9.24;100.00;100255.78;5026944;28;20561;-86
2021/12/30 01:34:33;;;;;;;20.30;13.13;;;;;;;9.25;100.00;100249.66;5020618;28;20053;-85
2021/12/30 01:37:01;;;;;;;24.20;12.02;;;;;;;9.30;100.00;100249.63;5045440;28;20072;-85
2021/12/30 01:39:30;;;;;;;23.50;12.55;;;;;;;9.32;100.00;100254.84;5009835;28;20052;-85
2021/12/30 01:41:58;;;;;;;25.88;13.38;;;;;;;9.30;100.00;100257.47;5027865;28;20358;-85
2021/12/30 01:44:25;;;;;;;23.88;12.45;;;;;;;9.29;100.00;100260.09;5009097;28;20078;-86
2021/12/30 01:46:52;;;;;;;20.02;12.13;;;;;;;9.32;100.00;100263.56;5027954;28;20037;-85
2021/12/30 01:49:19;;;;;;;23.65;12.13;;;;;;;9.33;100.00;100270.50;5046536;28;20056;-85
2021/12/30 01:51:46;;;;;;;20.60;12.63;;;;;;;9.34;100.00;100276.59;5042999;28;20448;-85
2021/12/30 01:54:12;;;;;;;24.42;11.95;;;;;;;9.37;100.00;100284.38;5045071;28;20060;-85
2021/12/30 01:56:39;;;;;;;25.83;11.10;;;;;;;9.38;100.00;100294.81;5030987;28;20618;-86
2021/12/30 01:59:06;;;;;;;21.00;10.95;;;;;;;9.38;100.00;100286.97;5029815;28;20061;-85
2021/12/30 02:01:33;;;;;;;19.77;11.25;;;;;;;9.40;100.00;100287.00;5014656;28;20504;-87
2021/12/30 02:04:01;;;;;;;21.98;11.90;;;;;;;9.41;100.00;100304.38;5039837;28;20068;-87
2021/12/30 02:06:28;;;;;;;19.58;11.02;;;;;;;9.40;100.00;100313.13;5027415;28;20067;-85
2021/12/30 02:08:55;;;;;;;19.33;10.85;;;;;;;9.38;100.00;100302.66;5025813;28;20120;-86
2021/12/30 02:11:24;;;;;;;17.98;10.63;;;;;;;9.37;100.00;100308.78;5045946;28;20049;-85
2021/12/30 02:13:54;;;;;;;27.05;11.98;;;;;;;9.33;100.00;100303.59;5043995;28;20135;-86
2021/12/30 02:16:21;;;;;;;20.15;10.48;;;;;;;9.33;100.00;100321.88;5024079;28;20157;-84
2021/12/30 02:18:50;;;;;;;24.08;11.57;;;;;;;9.29;100.00;100320.19;5028716;28;20060;-85
2021/12/30 02:21:16;;;;;;;29.60;11.77;;;;;;;9.25;100.00;100319.34;5043635;28;20045;-85
2021/12/30 02:23:43;;;;;;;25.40;11.43;;;;;;;9.21;100.00;100322.84;5029931;28;20053;-85
2021/12/30 02:26:16;;;;;;;27.15;10.90;;;;;;;9.21;100.00;100323.72;5049899;28;20059;-85
2021/12/30 02:28:44;;;;;;;22.13;11.00;;;;;;;9.27;100.00;100339.34;5029312;28;20041;-85
2021/12/30 02:31:16;;;;;;;24.92;10.73;;;;;;;9.35;100.00;100346.25;5016683;28;20052;-85
2021/12/30 02:33:44;;;;;;;21.05;10.48;;;;;;;9.37;100.00;100342.75;5043092;28;20860;-85
2021/12/30 02:36:13;;;;;;;18.98;11.13;;;;;;;9.32;100.00;100346.25;5028934;28;20782;-85
2021/12/30 02:38:44;;;;;;;24.95;11.60;;;;;;;9.30;100.00;100354.13;5027063;28;20055;-86
2021/12/30 02:41:15;;;;;;;30.27;11.13;;;;;;;9.29;100.00;100348.91;5043907;28;20057;-84
2021/12/30 02:43:42;;;;;;;30.20;12.00;;;;;;;9.32;100.00;100344.53;5029400;28;20044;-86
2021/12/30 02:46:09;;;;;;;19.40;11.18;;;;;;;9.41;100.00;100349.66;5023798;28;20876;-86
2021/12/30 02:48:41;;;;;;;19.98;10.05;;;;;;;9.43;100.00;100334.81;5017556;28;21122;-85
2021/12/30 02:51:11;;;;;;;19.90;10.30;;;;;;;9.49;100.00;100331.31;5008076;28;20571;-85
2021/12/30 02:53:38;;;;;;;19.80;10.48;;;;;;;9.56;100.00;100347.78;5035156;28;20049;-85
2021/12/30 02:56:06;;;;;;;21.08;9.40;;;;;;;9.59;100.00;100337.31;5027869;28;20056;-85
2021/12/30 02:58:33;;;;;;;18.27;7.93;;;;;;;9.63;100.00;100336.38;5023118;28;20064;-85
2021/12/30 03:01:15;;;;;;;26.17;9.48;;;;;;;9.63;100.00;100333.75;5030213;28;20137;-85
2021/12/30 03:03:42;;;;;;;19.10;8.30;;;;;;;9.66;100.00;100338.97;5013936;28;20414;-84
2021/12/30 03:06:11;;;;;;;17.17;7.85;;;;;;;9.67;100.00;100352.91;5029927;28;20041;-85
2021/12/30 03:08:38;;;;;;;29.45;9.18;;;;;;;9.67;100.00;100345.91;5047845;28;20066;-86
2021/12/30 03:11:06;;;;;;;19.33;7.88;;;;;;;9.57;100.00;100336.47;5026144;28;20036;-86
2021/12/30 03:13:34;;;;;;;21.70;7.25;;;;;;;9.45;100.00;100345.25;5046434;28;20753;-86
2021/12/30 03:16:08;;;;;;;22.48;8.60;;;;;;;9.35;100.00;100351.47;5022772;28;20434;-85
2021/12/30 03:18:37;;;;;;;16.05;7.25;;;;;;;9.31;100.00;100340.19;5027399;28;20059;-85
2021/12/30 03:21:06;;;;;;;22.45;7.32;;;;;;;9.24;100.00;100326.31;5024438;28;20048;-85
2021/12/30 03:23:34;;;;;;;29.95;8.68;;;;;;;9.18;100.00;100359.47;5030220;28;20057;-85
2021/12/30 03:26:01;;;;;;;24.42;7.65;;;;;;;9.13;100.00;100366.47;5043500;28;20053;-85
2021/12/30 03:28:28;;;;;;;24.70;8.82;;;;;;;9.10;100.00;100373.44;5026474;28;20048;-85
2021/12/30 03:30:58;;;;;;;20.65;6.65;;;;;;;9.05;100.00;100375.19;5028732;28;20446;-87
2021/12/30 03:33:30;;;;;;;23.00;7.53;;;;;;;8.98;100.00;100391.78;5006306;28;20067;-85
2021/12/30 03:36:00;;;;;;;18.17;7.03;;;;;;;8.96;100.00;100403.97;5043962;28;20075;-85
2021/12/30 03:38:30;;;;;;;24.92;6.90;;;;;;;8.98;100.00;100415.28;5044399;28;20533;-85
2021/12/30 03:40:56;;;;;;;34.83;9.35;;;;;;;9.06;100.00;100425.66;5021358;28;20606;-85
2021/12/30 03:43:23;;;;;;;22.30;7.30;;;;;;;9.17;100.00;100436.91;5026693;28;20052;-85
2021/12/30 03:45:49;;;;;;;20.25;6.35;;;;;;;9.25;100.00;100437.72;5020159;28;20080;-86
2021/12/30 03:48:16;;;;;;;33.00;7.40;;;;;;;9.35;100.00;100451.59;5027442;28;20049;-86
2021/12/30 03:50:44;;;;;;;20.00;7.05;;;;;;;9.39;100.00;100455.91;5028795;28;20280;-85
2021/12/30 03:53:14;;;;;;;26.13;6.97;;;;;;;9.44;100.00;100463.75;5038213;28;20077;-85
2021/12/30 03:55:41;;;;;;;24.83;6.68;;;;;;;9.50;100.00;100463.66;5024173;28;20049;-84
2021/12/30 03:58:08;;;;;;;19.73;6.90;;;;;;;9.51;100.00;100462.78;5023121;28;20048;-85
2021/12/30 04:00:38;;;;;;;28.77;6.72;;;;;;;9.57;100.00;100464.50;5041748;28;20140;-85
2021/12/30 04:03:06;;;;;;;16.75;6.72;;;;;;;9.63;100.00;100463.59;5026701;28;20598;-85
2021/12/30 04:05:33;;;;;;;28.90;6.95;;;;;;;9.68;100.00;100464.41;5040613;28;20041;-85
2021/12/30 04:08:00;;;;;;;27.27;7.47;;;;;;;9.74;100.00;100477.44;5028802;28;20404;-87
2021/12/30 04:10:26;;;;;;;19.95;8.60;;;;;;;9.77;100.00;100485.25;5005899;28;20131;-86
2021/12/30 04:12:54;;;;;;;29.52;6.28;;;;;;;9.79;100.00;100482.63;5045913;28;20069;-85
2021/12/30 04:15:21;;;;;;;22.38;6.68;;;;;;;9.74;100.00;100461.75;5043369;28;20059;-85
2021/12/30 04:17:48;;;;;;;20.90;6.05;;;;;;;9.75;100.00;100463.47;5014079;28;20079;-85
2021/12/30 04:20:16;;;;;;;24.48;6.60;;;;;;;9.82;100.00;100459.09;5021008;28;20053;-85
2021/12/30 04:22:44;;;;;;;24.30;7.35;;;;;;;9.75;100.00;100456.50;5024370;28;20071;-85
2021/12/30 04:25:14;;;;;;;31.20;7.78;;;;;;;9.68;100.00;100452.22;5028101;28;20116;-85
2021/12/30 04:27:42;;;;;;;27.77;6.43;;;;;;;9.62;100.00;100451.41;5026291;28;20045;-85
2021/12/30 04:30:11;;;;;;;22.17;5.55;;;;;;;9.58;100.00;100459.28;5031763;28;20045;-85
2021/12/30 04:32:39;;;;;;;13.93;5.93;;;;;;;9.53;100.00;100466.28;5022075;28;20052;-84
2021/12/30 04:35:08;;;;;;;22.05;7.07;;;;;;;9.48;100.00;100465.44;5043869;28;20048;-85
2021/12/30 04:37:35;;;;;;;24.85;6.28;;;;;;;9.43;100.00;100457.63;5022632;28;20683;-85
2021/12/30 04:40:02;;;;;;;16.48;6.45;;;;;;;9.42;100.00;100447.19;5030380;28;20060;-85
2021/12/30 04:42:30;;;;;;;24.52;6.18;;;;;;;9.38;100.00;100443.72;5031949;28;20053;-86
2021/12/30 04:44:56;;;;;;;25.98;6.30;;;;;;;9.38;100.00;100429.81;5047346;28;20040;-85
2021/12/30 04:47:23;;;;;;;27.15;6.03;;;;;;;9.36;100.00;100437.66;5012698;28;20467;-87
2021/12/30 04:49:52;;;;;;;23.92;7.00;;;;;;;9.34;100.00;100435.94;5020708;28;20087;-85
2021/12/30 04:52:18;;;;;;;21.33;6.50;;;;;;;9.27;100.00;100433.38;5043997;28;20049;-86
2021/12/30 04:54:45;;;;;;;22.35;6.30;;;;;;;9.22;100.00;100431.69;5014599;28;20206;-85
2021/12/30 04:57:11;;;;;;;23.70;6.57;;;;;;;9.17;100.00;100438.69;5050946;28;20055;-86
2021/12/30 04:59:38;;;;;;;23.33;6.47;;;;;;;9.08;100.00;100434.38;5023679;28;20045;-86
2021/12/30 05:02:05;;;;;;;20.67;6.63;;;;;;;9.03;100.00;100423.94;5029025;28;20045;-86
2021/12/30 05:04:31;;;;;;;21.60;6.65;;;;;;;9.01;100.00;100435.28;5030152;28;20049;-86
2021/12/30 05:06:58;;;;;;;19.38;6.45;;;;;;;9.02;100.00;100439.63;5030935;28;20037;-85
2021/12/30 05:09:24;;;;;;;31.50;6.68;;;;;;;9.03;100.00;100425.69;5033540;28;20056;-86
2021/12/30 05:11:51;;;;;;;25.55;6.97;;;;;;;9.03;100.00;100423.94;5027826;28;20199;-85
2021/12/30 05:14:18;;;;;;;27.73;8.35;;;;;;;9.06;100.00;100428.28;5048735;28;20052;-84
2021/12/30 05:16:45;;;;;;;25.65;7.13;;;;;;;9.06;100.00;100430.88;5027973;28;20048;-86
2021/12/30 05:19:12;;;;;;;21.67;6.95;;;;;;;9.08;100.00;100429.16;5028068;28;20059;-86
2021/12/30 05:21:39;;;;;;;32.00;7.38;;;;;;;9.09;100.00;100415.22;5012541;28;20052;-86
2021/12/30 05:24:06;;;;;;;27.63;7.13;;;;;;;9.12;100.00;100425.63;5036056;28;20060;-86
2021/12/30 05:26:33;;;;;;;34.83;8.50;;;;;;;9.19;100.00;100437.78;5031740;28;20543;-86
2021/12/30 05:29:00;;;;;;;23.38;6.88;;;;;;;9.26;100.00;100433.38;5031124;28;20048;-86
2021/12/30 05:31:28;;;;;;;20.75;7.88;;;;;;;9.32;100.00;100419.41;5027405;28;20044;-85
2021/12/30 05:33:54;;;;;;;27.13;7.78;;;;;;;9.37;100.00;100410.66;5049278;28;20047;-85
2021/12/30 05:36:21;;;;;;;28.90;8.82;;;;;;;9.37;100.00;100407.16;5032867;28;20048;-87
2021/12/30 05:38:48;;;;;;;17.80;7.25;;;;;;;9.32;100.00;100393.28;5034659;28;20040;-85
2021/12/30 05:41:14;;;;;;;24.95;7.75;;;;;;;9.26;100.00;100397.66;5026148;28;20056;-85
2021/12/30 05:43:41;;;;;;;25.77;8.52;;;;;;;9.24;100.00;100401.16;5032567;28;20051;-86
2021/12/30 05:46:08;;;;;;;26.77;8.88;;;;;;;9.21;100.00;100398.59;5024934;28;20036;-85
2021/12/30 05:48:34;;;;;;;19.83;8.18;;;;;;;9.19;100.00;100409.06;5014365;28;20044;-85
2021/12/30 05:51:01;;;;;;;25.95;9.02;;;;;;;9.27;100.00;100414.22;5035205;28;20454;-85
2021/12/30 05:53:30;;;;;;;28.42;10.13;;;;;;;9.38;100.00;100406.28;5030530;28;20141;-87
2021/12/30 05:55:58;;;;;;;25.15;9.65;;;;;;;9.43;100.00;100409.75;5032562;28;20041;-87
2021/12/30 05:58:25;;;;;;;30.23;8.02;;;;;;;9.44;100.00;100424.53;5026210;28;20072;-87
2021/12/30 06:00:51;;;;;;;26.50;9.13;;;;;;;9.48;100.00;100439.31;5014314;28;20127;-88
2021/12/30 06:03:20;;;;;;;29.20;9.80;;;;;;;9.50;100.00;100434.06;5048030;28;20051;-87
2021/12/30 06:05:51;;;;;;;22.33;9.07;;;;;;;9.52;100.00;100434.94;5010220;28;20048;-87
2021/12/30 06:08:18;;;;;;;22.38;9.90;;;;;;;9.56;100.00;100444.47;5014466;28;20065;-87
2021/12/30 06:10:45;;;;;;;37.08;9.77;;;;;;;9.56;100.00;100455.78;5029610;28;20045;-87
2021/12/30 06:13:13;;;;;;;30.38;10.60;;;;;;;9.63;100.00;100461.81;5032126;28;20049;-87
2021/12/30 06:15:40;;;;;;;19.55;8.77;;;;;;;9.60;100.00;100460.09;5035506;28;20080;-86
2021/12/30 06:18:07;;;;;;;28.73;10.52;;;;;;;9.62;100.00;100449.66;5026479;28;20472;-87
2021/12/30 06:20:34;;;;;;;35.22;10.93;;;;;;;9.68;100.00;100460.03;5029592;28;20064;-87
2021/12/30 06:23:01;;;;;;;21.52;10.48;;;;;;;9.75;100.00;100447.78;5044846;28;20055;-87
2021/12/30 06:25:27;;;;;;;29.92;10.10;;;;;;;9.84;100.00;100449.47;5031114;28;20056;-86
2021/12/30 06:27:56;;;;;;;17.27;9.10;;;;;;;9.86;100.00;100455.56;5042278;28;20500;-87
2021/12/30 06:30:23;;;;;;;27.00;10.85;;;;;;;9.97;100.00;100440.59;5032070;28;20418;-87
2021/12/30 06:32:50;;;;;;;23.02;10.65;;;;;;;10.01;100.00;100436.22;5030232;28;20084;-86
2021/12/30 06:35:17;;;;;;;27.13;11.90;;;;;;;10.07;100.00;100429.16;5025067;28;20510;-87
2021/12/30 06:37:44;;;;;;;27.63;9.77;;;;;;;10.16;100.00;100420.38;5029204;28;20051;-87
2021/12/30 06:40:14;;;;;;;28.02;10.73;;;;;;;10.17;100.00;100410.75;5027555;28;20106;-87
2021/12/30 06:42:43;;;;;;;27.63;10.43;;;;;;;10.17;100.00;100405.53;5045476;28;20044;-87
2021/12/30 06:45:12;;;;;;;21.35;10.70;;;;;;;10.21;100.00;100413.34;5025302;28;20043;-87
2021/12/30 06:47:38;;;;;;;31.30;11.00;;;;;;;10.23;100.00;100405.47;5043038;28;20064;-86
2021/12/30 06:50:05;;;;;;;23.92;10.18;;;;;;;10.27;100.00;100425.47;5031015;28;20045;-86
2021/12/30 06:52:32;;;;;;;23.98;10.48;;;;;;;10.30;100.00;100429.81;5026450;28;20048;-86
2021/12/30 06:54:59;;;;;;;25.02;10.60;;;;;;;10.30;100.00;100435.91;5033471;28;20052;-86
2021/12/30 06:57:25;;;;;;;17.05;9.90;;;;;;;10.34;100.00;100440.22;5031988;28;20057;-86
2021/12/30 06:59:52;;;;;;;23.98;11.45;;;;;;;10.38;100.00;100451.56;5042890;28;20220;-86
2021/12/30 07:02:18;;;;;;;24.38;10.98;;;;;;;10.37;100.00;100449.84;5046871;28;20058;-85
2021/12/30 07:04:45;;;;;;;31.48;12.45;;;;;;;10.32;100.00;100459.44;5026915;28;20522;-87
2021/12/30 07:07:11;;;;;;;25.25;11.93;;;;;;;10.28;100.00;100458.59;5031877;28;20047;-87
2021/12/30 07:09:38;;;;;;;31.35;13.20;;;;;;;10.27;100.00;100464.72;5047894;28;20051;-87
2021/12/30 07:12:06;;;;;;;28.20;13.45;;;;;;;10.26;100.00;100470.84;5026951;28;20049;-87
2021/12/30 07:14:33;;;;;;;29.80;13.00;;;;;;;10.26;100.00;100471.72;5026102;28;20127;-87
2021/12/30 07:16:59;;;;;;;31.80;12.90;;;;;;;10.26;100.00;100470.84;5014286;28;20052;-87
2021/12/30 07:19:26;;;;;;;27.40;12.95;;;;;;;10.24;100.00;100478.69;5032391;28;20076;-87
2021/12/30 07:21:52;;;;;;;29.88;13.48;;;;;;;10.27;100.00;100470.84;5014081;28;20089;-87
2021/12/30 07:24:21;;;;;;;30.55;13.75;;;;;;;10.30;100.00;100472.56;5045882;28;20086;-87
2021/12/30 07:26:51;;;;;;;24.75;12.00;;;;;;;10.36;100.00;100480.34;5031916;28;20053;-87
2021/12/30 07:29:18;;;;;;;23.35;10.98;;;;;;;10.38;100.00;100478.59;5022321;28;20060;-87
2021/12/30 07:31:45;;;;;;;18.48;11.20;;;;;;;10.43;100.00;100476.78;5026687;28;20052;-86
2021/12/30 07:34:12;;;;;;;21.35;12.32;;;;;;;10.48;100.00;100494.19;4991525;28;20136;-87
2021/12/30 07:36:39;;;;;;;22.23;12.50;;;;;;;10.53;100.00;100479.28;5010992;28;20274;-87
2021/12/30 07:39:06;;;;;;;23.27;12.60;;;;;;;10.56;100.00;100485.38;5009424;28;20046;-87
2021/12/30 07:41:33;;;;;;;27.20;11.82;;;;;;;10.59;100.00;100489.72;4989173;28;20614;-86
2021/12/30 07:43:59;;;;;;;21.23;11.95;;;;;;;10.59;100.00;100493.19;4988005;28;20041;-87
2021/12/30 07:46:26;;;;;;;25.67;12.55;;;;;;;10.68;100.00;100502.69;5004519;28;20119;-87
2021/12/30 07:48:53;;;;;;;21.33;12.05;;;;;;;10.70;100.00;100492.19;5010915;28;20041;-87
2021/12/30 07:51:19;;;;;;;23.70;12.75;;;;;;;10.69;100.00;100493.94;5011517;28;20073;-86
2021/12/30 07:53:46;;;;;;;19.88;13.07;;;;;;;10.69;100.00;100485.22;5008627;28;20508;-87
2021/12/30 07:56:13;;;;;;;23.73;12.85;;;;;;;10.65;100.00;100480.91;5011412;28;20139;-87
2021/12/30 07:58:40;;;;;;;22.63;12.98;;;;;;;10.67;100.00;100482.63;5026112;28;20045;-87
2021/12/30 08:01:07;;;;;;;21.38;11.55;;;;;;;10.69;100.00;100498.28;5009006;28;20055;-87
2021/12/30 08:03:34;;;;;;;23.50;13.88;;;;;;;10.75;100.00;100500.84;4995158;28;20037;-87
2021/12/30 08:06:00;;;;;;;23.90;12.60;;;;;;;10.76;100.00;100500.81;4987970;28;20059;-87
2021/12/30 08:08:27;;;;;;;21.65;11.90;;;;;;;10.79;100.00;100492.06;5024528;28;20044;-87
2021/12/30 08:10:54;;;;;;;23.13;13.70;;;;;;;10.81;100.00;100481.56;5005482;28;20073;-87
2021/12/30 08:13:21;;;;;;;19.85;12.57;;;;;;;10.83;100.00;100475.44;4994598;28;20111;-87
2021/12/30 08:15:48;;;;;;;22.98;12.98;;;;;;;10.85;100.00;100476.28;4995263;28;20044;-87
2021/12/30 08:18:15;;;;;;;18.40;11.70;;;;;;;10.91;100.00;100481.44;5006003;28;20468;-87
2021/12/30 08:20:41;;;;;;;24.17;11.65;;;;;;;10.94;100.00;100488.41;4995406;28;20161;-86
2021/12/30 08:23:08;;;;;;;17.60;11.85;;;;;;;10.96;100.00;100489.22;5022487;28;20049;-87
2021/12/30 08:25:35;;;;;;;22.50;12.48;;;;;;;10.98;100.00;100494.47;5027552;28;20057;-87
2021/12/30 08:28:02;;;;;;;16.10;10.18;;;;;;;11.03;100.00;100500.50;4997631;28;20059;-87
2021/12/30 08:30:29;;;;;;;15.63;10.55;;;;;;;11.03;100.00;100488.28;5024401;28;20160;-86
2021/12/30 08:32:56;;;;;;;19.40;11.95;;;;;;;11.04;100.00;100479.53;5038390;28;20080;-86
2021/12/30 08:35:23;;;;;;;13.75;8.68;;;;;;;11.06;100.00;100482.13;5041439;28;20047;-87
2021/12/30 08:37:54;;;;;;;14.82;8.95;;;;;;;11.11;100.00;100477.69;5024656;28;20560;-87
2021/12/30 08:40:21;;;;;;;13.30;8.70;;;;;;;11.18;100.00;100479.31;5032412;28;20682;-87
2021/12/30 08:42:47;;;;;;;13.85;7.15;;;;;;;11.24;100.00;100475.78;5030483;28;20108;-87
2021/12/30 08:45:15;;;;;;;11.68;7.80;;;;;;;11.34;100.00;100492.22;5020866;28;20053;-86
2021/12/30 08:47:44;;;;;;;12.23;7.00;;;;;;;11.39;100.00;100493.00;5010634;28;20047;-87
2021/12/30 08:50:15;;;;;;;9.52;6.78;;;;;;;11.44;100.00;100492.94;5029547;28;20055;-87
2021/12/30 08:52:43;;;;;;;9.20;6.35;;;;;;;11.45;100.00;100502.56;5007353;28;20068;-87
2021/12/30 08:55:10;;;;;;;7.75;6.53;;;;;;;11.48;100.00;100503.34;5013890;28;20076;-86
2021/12/30 08:57:40;;;;;;;6.22;5.63;;;;;;;11.58;100.00;100504.09;5019085;28;20048;-87
2021/12/30 09:00:23;;;;;;;6.85;5.95;;;;;;;11.62;100.00;100491.81;5011304;28;20044;-87
2021/12/30 09:02:52;;;;;;;10.18;6.30;;;;;;;11.65;100.00;100494.38;5034536;28;20048;-87
2021/12/30 09:05:20;;;;;;;7.45;4.75;;;;;;;11.71;100.00;100502.16;5030330;28;20071;-87
2021/12/30 09:07:47;;;;;;;7.68;5.45;;;;;;;11.75;100.00;100499.44;5033812;28;20128;-87
2021/12/30 09:10:16;;;;;;;7.10;5.53;;;;;;;11.79;100.00;100497.63;5033348;28;20103;-87
2021/12/30 09:12:44;;;;;;;5.53;4.40;;;;;;;11.82;100.00;100501.97;5022841;28;20341;-87
2021/12/30 09:15:16;;;;;;;6.25;5.32;;;;;;;11.82;100.00;100501.97;5051406;28;20053;-87
2021/12/30 09:17:46;;;;;;;7.38;5.25;;;;;;;11.84;100.00;100494.94;5048707;28;20060;-87
2021/12/30 09:20:14;;;;;;;9.02;4.57;;;;;;;11.83;100.00;100499.31;5034751;28;20056;-87
2021/12/30 09:22:41;;;;;;;4.95;4.38;;;;;;;11.84;100.00;100501.03;5033876;28;20491;-87
2021/12/30 09:25:10;;;;;;;5.68;4.93;;;;;;;11.79;100.00;100508.13;5034722;28;20517;-87
2021/12/30 09:27:39;;;;;;;6.60;4.85;;;;;;;11.73;100.00;100501.22;5024537;28;20049;-88
2021/12/30 09:30:10;;;;;;;4.90;4.38;;;;;;;11.68;100.00;100507.41;5048897;28;20127;-88
2021/12/30 09:32:39;;;;;;;7.57;4.85;;;;;;;11.64;100.00;100506.63;5012450;28;20060;-86
2021/12/30 09:35:06;;;;;;;8.45;5.28;;;;;;;11.57;100.00;100508.44;5012051;28;20164;-87
2021/12/30 09:37:32;;;;;;;6.03;4.30;;;;;;;11.53;100.00;100503.28;5048647;28;20055;-87
2021/12/30 09:40:00;;;;;;;5.10;3.83;;;;;;;11.53;100.00;100498.91;5049125;28;20047;-87
2021/12/30 09:42:27;;;;;;;5.57;4.13;;;;;;;11.52;100.00;100504.19;5043190;28;20074;-86
2021/12/30 09:44:54;;;;;;;5.75;4.40;;;;;;;11.53;100.00;100508.53;5050508;28;20057;-86
2021/12/30 09:47:21;;;;;;;7.13;4.60;;;;;;;11.51;100.00;100494.56;5051407;28;20532;-86
2021/12/30 09:49:50;;;;;;;4.22;3.80;;;;;;;11.52;100.00;100493.69;5050508;28;20533;-87
2021/12/30 09:52:18;;;;;;;3.45;3.15;;;;;;;11.55;100.00;100496.25;5034129;28;20075;-87
2021/12/30 09:54:45;;;;;;;4.20;3.75;;;;;;;11.56;100.00;100498.88;5028622;28;20049;-86
2021/12/30 09:57:11;;;;;;;5.78;3.50;;;;;;;11.59;100.00;100503.22;5049315;28;20515;-86
2021/12/30 09:59:40;;;;;;;5.35;3.50;;;;;;;11.62;100.00;100492.66;5009608;28;20039;-87
2021/12/30 10:02:07;;;;;;;5.43;3.22;;;;;;;11.65;100.00;100500.47;5030616;28;20054;-87
2021/12/30 10:04:36;;;;;;;3.63;2.78;;;;;;;11.67;100.00;100500.47;5033030;28;20176;-87
2021/12/30 10:07:04;;;;;;;6.72;3.33;;;;;;;11.70;100.00;100508.28;5032773;28;20424;-87
2021/12/30 10:09:49;;;;;;;2.80;2.60;;;;;;;11.71;100.00;100503.00;5033405;28;20048;-87
2021/12/30 10:12:32;;;;;;;2.78;2.22;;;;;;;11.74;100.00;100502.09;5010118;28;20087;-87
2021/12/30 10:14:59;;;;;;;2.40;2.20;;;;;;;11.80;100.00;100498.47;5031494;28;20706;-87
2021/12/30 10:17:28;;;;;;;2.90;2.25;;;;;;;11.79;100.00;100502.88;5043341;28;20052;-87
2021/12/30 10:20:15;;;;;;;3.80;2.08;;;;;;;11.81;100.00;100497.59;5051043;28;20044;-87
2021/12/30 10:22:42;;;;;;;3.47;2.33;;;;;;;11.85;100.00;100494.91;5029199;28;20385;-87
2021/12/30 10:25:33;;;;;;;2.53;2.28;;;;;;;11.89;100.00;100490.50;5050572;28;20418;-87
2021/12/30 10:28:43;;;;;;;1.98;1.88;;;;;;;11.91;100.00;100486.94;5051594;28;20044;-87
2021/12/30 10:31:13;;;;;;;1.63;1.52;;;;;;;11.96;100.00;100486.03;5036584;28;20044;-87
2021/12/30 10:33:57;;;;;;;2.20;1.33;;;;;;;11.99;100.00;100491.22;5029149;28;20065;-87
2021/12/30 10:36:40;;;;;;;1.77;1.17;;;;;;;12.01;100.00;100487.66;5025260;28;20049;-87
2021/12/30 10:39:22;;;;;;;1.23;0.80;;;;;;;12.04;100.00;100498.09;5016212;28;20059;-87
2021/12/30 10:42:19;;;;;;;3.65;1.48;;;;;;;12.09;100.00;100492.78;5045013;28;20049;-87
2021/12/30 10:45:07;;;;;;;1.05;1.05;;;;;;;12.07;100.00;100500.69;5017756;28;20926;-87
2021/12/30 10:47:52;;;;;;;1.80;0.98;;;;;;;12.04;100.00;100505.13;5022219;28;20049;-87
2021/12/30 10:50:24;;;;;;;1.77;0.80;;;;;;;12.00;100.00;100506.06;5029875;28;20045;-87
2021/12/30 10:52:56;;;;;;;3.03;0.63;;;;;;;11.97;100.00;100490.34;5024490;28;20055;-87
2021/12/30 10:55:25;;;;;;;0.60;0.60;;;;;;;12.00;100.00;100487.69;5025943;28;20053;-87
2021/12/30 10:57:53;;;;;;;1.05;1.00;;;;;;;12.03;100.00;100487.63;5026579;28;20049;-86
2021/12/30 11:00:36;;;;;;;0.70;0.70;;;;;;;12.06;100.00;100480.59;5010459;28;20050;-86
2021/12/30 11:03:24;;;;;;;0.80;0.70;;;;;;;12.12;100.00;100481.38;5026400;28;20662;-87
2021/12/30 11:06:18;;;;;;;0.68;0.68;;;;;;;12.19;100.00;100483.84;5024699;28;20459;-87
2021/12/30 11:08:46;;;;;;;0.77;0.77;;;;;;;12.27;100.00;100475.84;5011745;28;20660;-86
2021/12/30 11:11:28;;;;;;;0.60;0.60;;;;;;;12.31;100.00;100485.38;5042205;28;20399;-87
2021/12/30 11:14:07;;;;;;;1.55;1.38;;;;;;;12.33;100.00;100488.84;5025428;28;20150;-87
2021/12/30 11:16:58;;;;;;;1.67;1.58;;;;;;;12.36;100.00;100490.56;5046446;28;20053;-87
2021/12/30 11:19:26;;;;;;;2.15;1.27;;;;;;;12.41;100.00;100483.44;5010222;28;20075;-87